createdAt,value
2023-05-20T00:04:03.492Z,4.88
2023-05-20T00:11:37.632Z,6.00
2023-05-20T00:19:12.935Z,3.10
2023-05-20T00:26:46.720Z,4.75
2023-05-20T00:34:22.010Z,3.85
2023-05-20T00:41:56.916Z,5.35
2023-05-20T00:49:32.242Z,3.17
2023-05-20T00:57:08.062Z,2.55
2023-05-20T01:04:47.126Z,3.63
2023-05-20T01:12:24.964Z,4.20
2023-05-20T01:20:01.508Z,6.00
2023-05-20T01:27:37.138Z,4.18
2023-05-20T01:35:11.555Z,4.53
2023-05-20T01:42:53.057Z,3.77
2023-05-20T01:50:27.619Z,6.93
2023-05-20T01:58:03.014Z,4.47
2023-05-20T02:05:37.299Z,4.28
2023-05-20T02:13:13.009Z,6.93
2023-05-20T02:20:46.941Z,5.85
2023-05-20T02:28:22.235Z,5.03
2023-05-20T02:35:56.176Z,6.45
2023-05-20T02:43:32.286Z,7.15
2023-05-20T02:51:06.742Z,4.50
2023-05-20T02:58:42.564Z,5.87
2023-05-20T03:06:16.491Z,7.53
2023-05-20T03:13:51.801Z,5.97
2023-05-20T03:21:26.794Z,5.15
2023-05-20T03:36:35.945Z,7.80
2023-05-20T03:44:11.207Z,8.93
2023-05-20T03:51:45.105Z,6.18
2023-05-20T03:59:22.325Z,8.20
2023-05-20T04:06:56.915Z,5.88
2023-05-20T04:14:35.060Z,5.63
2023-05-20T04:22:08.956Z,6.95
2023-05-20T04:29:46.008Z,6.35
2023-05-20T04:37:20.007Z,7.00
2023-05-20T04:44:55.187Z,9.02
2023-05-20T04:52:29.276Z,6.18
2023-05-20T05:07:55.321Z,10.32
2023-05-20T05:15:30.926Z,7.20
2023-05-20T05:23:04.808Z,6.35
2023-05-20T05:30:40.488Z,8.75
2023-05-20T05:38:14.678Z,10.68
2023-05-20T05:45:50.237Z,8.77
2023-05-20T05:53:30.058Z,9.40
2023-05-20T06:01:05.439Z,7.68
2023-05-20T06:08:39.375Z,9.05
2023-05-20T06:16:14.656Z,10.52
2023-05-20T06:23:48.508Z,8.85
2023-05-20T06:31:24.380Z,9.02
2023-05-20T06:38:58.771Z,10.68
2023-05-20T06:46:34.233Z,9.73
2023-05-20T06:54:08.126Z,6.65
2023-05-20T07:01:43.384Z,10.88
2023-05-20T07:09:17.490Z,9.48
2023-05-20T07:16:52.840Z,10.37
2023-05-20T07:24:26.914Z,9.27
2023-05-20T07:32:02.410Z,11.20
2023-05-20T07:39:36.346Z,7.00
2023-05-20T07:47:11.589Z,10.73
2023-05-20T07:54:45.735Z,8.02
2023-05-20T08:02:21.470Z,8.97
2023-05-20T08:09:55.484Z,7.32
2023-05-20T08:17:30.861Z,9.82
2023-05-20T08:25:05.585Z,11.95
2023-05-20T08:32:40.777Z,8.15
2023-05-20T08:40:15.285Z,9.75
2023-05-20T08:47:50.798Z,8.40
2023-05-20T08:55:27.788Z,6.50
2023-05-20T09:03:04.269Z,10.38
2023-05-20T09:10:38.987Z,8.65
2023-05-20T09:18:14.558Z,8.63
2023-05-20T09:25:50.946Z,8.77
2023-05-20T09:33:29.872Z,8.43
2023-05-20T09:41:14.178Z,9.45
2023-05-20T09:48:48.114Z,10.93
2023-05-20T09:56:26.651Z,10.20
2023-05-20T10:04:01.889Z,7.93
2023-05-20T10:11:46.562Z,11.18
2023-05-20T10:19:30.125Z,7.67
2023-05-20T10:27:09.400Z,12.55
2023-05-20T10:34:48.458Z,10.13
2023-05-20T10:42:31.016Z,13.95
2023-05-20T10:50:06.195Z,10.43
2023-05-20T10:57:42.567Z,12.02
2023-05-20T11:05:18.972Z,13.40
2023-05-20T11:12:54.526Z,10.88
2023-05-20T11:20:28.743Z,12.38
2023-05-20T11:28:04.152Z,12.70
2023-05-20T11:35:37.991Z,10.52
2023-05-20T11:43:14.541Z,9.68
2023-05-20T11:50:49.522Z,13.38
2023-05-20T12:06:02.152Z,13.68
2023-05-20T12:13:37.595Z,9.85
2023-05-20T12:21:11.500Z,13.32
2023-05-20T12:28:46.807Z,16.05
2023-05-20T12:36:20.641Z,10.40
2023-05-20T12:43:55.992Z,10.38
2023-05-20T12:51:29.921Z,12.57
2023-05-20T12:59:05.169Z,9.13
2023-05-20T13:06:39.018Z,14.57
2023-05-20T13:14:15.750Z,9.73
2023-05-20T13:21:52.167Z,11.50
2023-05-20T13:29:27.340Z,9.75
2023-05-20T13:37:01.122Z,10.50
2023-05-20T13:44:36.562Z,9.70
2023-05-20T13:52:10.631Z,11.75
2023-05-20T13:59:46.068Z,11.27
2023-05-20T14:07:20.301Z,10.77
2023-05-20T14:14:56.140Z,11.43
2023-05-20T14:22:30.286Z,12.38
2023-05-20T14:30:07.075Z,10.27
2023-05-20T14:37:41.225Z,9.10
2023-05-20T14:53:07.992Z,9.05
2023-05-20T15:00:43.524Z,8.40
2023-05-20T15:08:17.589Z,7.82
2023-05-20T15:15:52.938Z,8.77
2023-05-20T15:23:26.784Z,8.38
2023-05-20T15:31:02.290Z,8.73
2023-05-20T15:38:36.096Z,8.80
2023-05-20T15:46:12.586Z,8.35
2023-05-20T15:53:46.454Z,9.68
2023-05-20T16:01:23.265Z,7.68
2023-05-20T16:08:57.260Z,10.85
2023-05-20T16:16:35.103Z,7.03
2023-05-20T16:24:09.790Z,7.75
2023-05-20T16:31:47.162Z,12.05
2023-05-20T16:39:21.387Z,12.85
2023-05-20T16:46:56.616Z,5.90
2023-05-20T16:54:30.441Z,7.30
2023-05-20T17:02:05.982Z,11.65
2023-05-20T17:09:39.874Z,7.28
2023-05-20T17:17:15.348Z,7.68
2023-05-20T17:24:49.261Z,7.72
2023-05-20T17:32:24.579Z,10.00
2023-05-20T17:39:58.483Z,8.45
2023-05-20T17:47:33.792Z,9.00
2023-05-20T17:55:09.610Z,12.65
2023-05-20T18:02:47.990Z,8.93
2023-05-20T18:10:21.979Z,9.13
2023-05-20T18:17:57.162Z,10.95
2023-05-20T18:25:31.050Z,9.95
2023-05-20T18:33:07.734Z,8.70
2023-05-20T18:40:41.654Z,9.15
2023-05-20T18:48:25.664Z,9.52
2023-05-20T18:56:03.275Z,7.23
2023-05-20T19:03:38.546Z,8.43
2023-05-20T19:11:12.869Z,7.75
2023-05-20T19:18:48.760Z,9.13
2023-05-20T19:26:22.780Z,9.98
2023-05-20T19:33:58.597Z,7.80
2023-05-20T19:41:32.805Z,7.50
2023-05-20T19:49:08.198Z,10.17
2023-05-20T19:56:42.059Z,10.13
2023-05-20T20:04:18.693Z,9.40
2023-05-20T20:11:52.775Z,10.15
2023-05-20T20:19:28.575Z,9.33
2023-05-20T20:27:02.640Z,10.07
2023-05-20T20:34:37.978Z,9.30
2023-05-20T20:42:11.892Z,11.05
2023-05-20T20:49:49.750Z,8.52
2023-05-20T20:57:23.944Z,7.97
2023-05-20T21:05:02.034Z,8.33
2023-05-20T21:12:36.002Z,9.05
2023-05-20T21:20:12.886Z,9.10
2023-05-20T21:27:47.087Z,11.10
2023-05-20T21:35:22.262Z,9.23
2023-05-20T21:42:56.831Z,12.00
2023-05-20T21:50:32.319Z,9.70
2023-05-20T21:58:06.848Z,14.10
2023-05-20T22:05:46.233Z,12.30
2023-05-20T22:13:20.986Z,13.25
2023-05-20T22:20:56.695Z,14.95
2023-05-20T22:28:30.766Z,13.55
2023-05-20T22:36:06.758Z,11.63
2023-05-20T22:43:40.768Z,16.25
2023-05-20T22:51:16.634Z,14.63
2023-05-20T22:58:50.680Z,11.82
2023-05-20T23:06:26.965Z,13.25
2023-05-20T23:14:00.969Z,20.52
2023-05-20T23:21:37.501Z,14.73
2023-05-20T23:29:11.781Z,12.73
2023-05-20T23:36:47.260Z,16.50
2023-05-20T23:44:21.335Z,16.60
2023-05-20T23:51:56.715Z,17.80
2023-05-20T23:59:30.974Z,14.80
